Latest Weather Observations for Arlington Reef

IDQ60801

Issued at 1:02 am EST Friday 4 September 2015 (issued every 30 minutes, with the page automatically refreshed every 10 minutes)

About weather observations | Map of weather stations | Latest weather observations for QLD | Other Formats
Station Details ID: 200879 Name: ARLINGTON REEF Lat: -16.72 Lon: 146.11 Height: 0.0 m
Data from the previous 72 hours. | See also: Recent months at Arlington Reef
Date/Time
EST
Temp
°C
App
Temp
°C
Dew
Point
Rel
Hum
%
Delta-T
°C
Wind Press
QNH
hPa
Press
MSL
hPa
Rain
since 9 am
mm
Dir
 
Spd
km/h
Gust
km/h
Spd
kts
Gust
kts
04/01:00am - - - - - NNW 13 17 7 9 1016.4 1016.4 -
04/12:30am - - - - - NNW 11 13 6 7 1016.8 1016.8 -
04/12:00am - - - - - N 11 15 6 8 1017.1 1017.1 -
 
Date/Time
EST
Temp
°C
App
Temp
°C
Dew
Point
Rel
Hum
%
Delta-T
°C
Wind Press
QNH
hPa
Press
MSL
hPa
Rain
since 9 am
mm
Dir
 
Spd
km/h
Gust
km/h
Spd
kts
Gust
kts
03/11:30pm - - - - - NNW 13 15 7 8 1017.2 1017.2 -
03/11:00pm - - - - - NNW 11 11 6 6 1017.4 1017.4 -
03/10:30pm - - - - - N 9 13 5 7 1017.5 1017.5 -
03/10:00pm - - - - - N 7 11 4 6 1017.7 1017.7 -
03/09:30pm - - - - - N 7 9 4 5 1017.7 1017.7 -
03/09:00pm - - - - - N 6 7 3 4 1017.5 1017.5 -
03/08:30pm - - - - - N 4 4 2 2 1017.3 1017.3 -
03/08:00pm - - - - - NNE 4 6 2 3 1017.1 1017.1 -
03/07:30pm - - - - - N 6 7 3 4 1016.7 1016.7 -
03/07:00pm - - - - - N 7 9 4 5 1016.5 1016.5 -
03/06:30pm - - - - - NNE 4 6 2 3 1016.2 1016.2 -
03/06:00pm - - - - - N 7 11 4 6 1015.6 1015.6 -
03/05:30pm - - - - - NNE 11 13 6 7 1015.3 1015.3 -
03/05:00pm - - - - - NNE 11 13 6 7 1015.2 1015.2 -
03/04:30pm - - - - - NNE 11 15 6 8 1015.2 1015.2 -
03/04:00pm - - - - - NNE 13 15 7 8 1015.1 1015.1 -
03/03:30pm - - - - - NNE 13 15 7 8 1015.2 1015.2 -
03/03:00pm - - - - - NNE 11 13 6 7 1015.4 1015.4 -
03/02:30pm - - - - - NNE 13 17 7 9 1015.7 1015.7 -
03/02:00pm - - - - - NE 15 17 8 9 1015.9 1015.9 -
03/01:30pm - - - - - NNE 13 17 7 9 1016.4 1016.4 -
03/01:00pm - - - - - NNE 11 13 6 7 1017.0 1017.0 -
03/12:30pm - - - - - NNE 7 9 4 5 1017.6 1017.6 -
03/12:00pm - - - - - NW 4 6 2 3 1018.3 1018.3 -
03/11:30am - - - - - WNW 7 9 4 5 1018.9 1018.9 -
03/11:00am - - - - - WNW 6 9 3 5 1019.1 1019.1 -
03/10:30am - - - - - NW 9 13 5 7 1019.3 1019.3 -
03/10:00am - - - - - NNW 11 13 6 7 1019.3 1019.3 -
03/09:30am - - - - - NNW 11 15 6 8 1019.2 1019.2 -
03/09:00am - - - - - NNW 13 17 7 9 1018.8 1018.8 -
03/08:30am - - - - - NNW 13 17 7 9 1018.6 1018.6 -
03/08:00am - - - - - N 15 17 8 9 1018.3 1018.3 -
03/07:30am - - - - - N 13 19 7 10 1017.9 1017.9 -
03/07:00am - - - - - N 15 19 8 10 1017.6 1017.6 -
03/06:30am - - - - - N 15 17 8 9 1017.3 1017.3 -
03/06:00am - - - - - N 13 17 7 9 1016.9 1016.9 -
03/05:30am - - - - - N 11 13 6 7 1016.7 1016.7 -
03/05:00am - - - - - N 11 13 6 7 1016.3 1016.3 -
03/04:30am - - - - - N 11 15 6 8 1016.2 1016.2 -
03/04:00am - - - - - N 11 15 6 8 1016.1 1016.1 -
03/03:30am - - - - - N 13 15 7 8 1016.2 1016.2 -
03/03:00am - - - - - N 13 15 7 8 1016.2 1016.2 -
03/02:30am - - - - - N 11 15 6 8 1016.3 1016.3 -
03/02:00am - - - - - N 11 13 6 7 1016.3 1016.3 -
03/01:30am - - - - - N 11 13 6 7 1016.5 1016.5 -
03/01:00am - - - - - N 11 15 6 8 1016.6 1016.6 -
03/12:30am - - - - - N 13 15 7 8 1016.9 1016.9 -
03/12:00am - - - - - N 13 15 7 8 1017.1 1017.1 -
 
Date/Time
EST
Temp
°C
App
Temp
°C
Dew
Point
Rel
Hum
%
Delta-T
°C
Wind Press
QNH
hPa
Press
MSL
hPa
Rain
since 9 am
mm
Dir
 
Spd
km/h
Gust
km/h
Spd
kts
Gust
kts
02/11:30pm - - - - - N 15 17 8 9 1017.0 1017.0 -
02/11:00pm - - - - - N 17 19 9 10 1017.1 1017.1 -
02/10:30pm - - - - - NNE 17 20 9 11 1017.0 1017.0 -
02/10:00pm - - - - - NNE 17 19 9 10 1016.9 1016.9 -
02/09:30pm - - - - - NNE 15 19 8 10 1016.9 1016.9 -
02/09:00pm - - - - - NNE 15 19 8 10 1016.8 1016.8 -
02/08:30pm - - - - - NNE 17 20 9 11 1016.6 1016.6 -
02/08:00pm - - - - - NNE 15 17 8 9 1016.5 1016.5 -
02/07:30pm - - - - - NNE 15 17 8 9 1016.3 1016.3 -
02/07:00pm - - - - - NNE 17 20 9 11 1015.8 1015.8 -
02/06:30pm - - - - - NNE 17 20 9 11 1015.4 1015.4 -
02/06:00pm - - - - - NNE 15 17 8 9 1015.3 1015.3 -
02/05:30pm - - - - - NE 13 15 7 8 1015.4 1015.4 -
02/05:00pm - - - - - NNE 13 17 7 9 1015.2 1015.2 -
02/04:30pm - - - - - NNE 13 15 7 8 1015.2 1015.2 -
02/04:00pm - - - - - NNE 13 17 7 9 1015.4 1015.4 -
02/03:30pm - - - - - NNE 11 15 6 8 1015.5 1015.5 -
02/03:00pm - - - - - NNE 13 17 7 9 1015.6 1015.6 -
02/02:30pm - - - - - NNE 11 13 6 7 1016.1 1016.1 -
02/02:00pm - - - - - NNE 9 11 5 6 1016.5 1016.5 -
02/01:30pm - - - - - NNE 7 9 4 5 1017.0 1017.0 -
02/01:00pm - - - - - N 6 7 3 4 1017.5 1017.5 -
02/12:30pm - - - - - N 7 9 4 5 1018.1 1018.1 -
02/12:00pm - - - - - NNE 6 9 3 5 1018.6 1018.6 -
02/11:00am - - - - - NNE 7 9 4 5 1019.4 1019.4 -
02/10:30am - - - - - NNE 7 9 4 5 1019.7 1019.7 -
02/10:00am - - - - - NNE 7 11 4 6 1019.9 1019.9 -
02/09:30am - - - - - NNE 9 11 5 6 1019.8 1019.8 -
02/09:00am - - - - - NNE 11 13 6 7 1019.6 1019.6 -
02/08:30am - - - - - N 11 13 6 7 1019.2 1019.2 -
02/08:00am - - - - - N 11 13 6 7 1018.8 1018.8 -
02/07:30am - - - - - NNE 13 17 7 9 1018.2 1018.2 -
02/07:00am - - - - - NNE 15 19 8 10 1017.8 1017.8 -
02/06:30am - - - - - NNE 17 19 9 10 1017.2 1017.2 -
02/06:00am - - - - - NNE 17 20 9 11 1016.7 1016.7 -
02/05:30am - - - - - NE 17 19 9 10 1016.3 1016.3 -
02/05:00am - - - - - NE 17 19 9 10 1016.0 1016.0 -
02/04:30am - - - - - NE 19 20 10 11 1015.9 1015.9 -
02/04:00am - - - - - NE 17 19 9 10 1016.0 1016.0 -
02/03:30am - - - - - NNE 15 17 8 9 1016.1 1016.1 -
02/03:00am - - - - - NNE 15 19 8 10 1016.1 1016.1 -
02/02:30am - - - - - NNE 17 19 9 10 1016.2 1016.2 -
02/02:00am - - - - - NNE 15 19 8 10 1016.2 1016.2 -
02/01:30am - - - - - NNE 19 20 10 11 1016.2 1016.2 -
02/01:00am - - - - - NNE 17 20 9 11 1016.2 1016.2 -
02/12:30am - - - - - NNE 17 19 9 10 1016.3 1016.3 -
02/12:00am - - - - - NNE 15 17 8 9 1016.4 1016.4 -
 
Date/Time
EST
Temp
°C
App
Temp
°C
Dew
Point
Rel
Hum
%
Delta-T
°C
Wind Press
QNH
hPa
Press
MSL
hPa
Rain
since 9 am
mm
Dir
 
Spd
km/h
Gust
km/h
Spd
kts
Gust
kts
01/11:30pm - - - - - NE 15 19 8 10 1016.4 1016.4 -
01/11:00pm - - - - - NE 13 17 7 9 1016.4 1016.4 -
01/10:30pm - - - - - NE 15 17 8 9 1016.2 1016.2 -
01/10:00pm - - - - - NE 15 19 8 10 1016.1 1016.1 -
01/09:30pm - - - - - NNE 15 17 8 9 1016.0 1016.0 -
01/09:00pm - - - - - NNE 17 19 9 10 1015.6 1015.6 -
01/08:30pm - - - - - NE 17 20 9 11 1015.2 1015.2 -
01/08:00pm - - - - - NNE 17 19 9 10 1014.9 1014.9 -
01/07:30pm - - - - - NNE 17 19 9 10 1014.6 1014.6 -
01/07:00pm - - - - - NNE 15 19 8 10 1014.2 1014.2 -
01/06:30pm - - - - - NE 15 19 8 10 1013.9 1013.9 -
01/06:00pm - - - - - NNE 17 19 9 10 1013.8 1013.8 -
01/05:30pm - - - - - NE 17 20 9 11 1013.7 1013.7 -
01/05:00pm - - - - - NE 17 19 9 10 1013.4 1013.4 -
01/04:30pm - - - - - NE 15 19 8 10 1013.3 1013.3 -
01/04:00pm - - - - - NE 15 19 8 10 1013.3 1013.3 -
01/03:30pm - - - - - NE 15 17 8 9 1013.4 1013.4 -
01/03:00pm - - - - - NNE 15 17 8 9 1013.7 1013.7 -
01/02:30pm - - - - - NE 13 15 7 8 1014.0 1014.0 -
01/02:00pm - - - - - NE 11 15 6 8 1014.5 1014.5 -
01/01:30pm - - - - - NNE 11 13 6 7 1014.9 1014.9 -
01/01:00pm - - - - - NNE 9 11 5 6 1015.4 1015.4 -
01/12:30pm - - - - - NE 9 11 5 6 1015.9 1015.9 -
01/12:00pm - - - - - NE 7 9 4 5 1016.4 1016.4 -
01/11:30am - - - - - NE 6 7 3 4 1016.9 1016.9 -
01/11:00am - - - - - NE 4 6 2 3 1017.3 1017.3 -
01/10:30am - - - - - NNE 6 7 3 4 1017.5 1017.5 -
01/10:00am - - - - - NE 7 9 4 5 1017.7 1017.7 -
01/09:30am - - - - - NE 7 9 4 5 1017.7 1017.7 -
01/09:00am - - - - - NE 9 13 5 7 1017.5 1017.5 -
01/08:30am - - - - - NE 9 11 5 6 1017.3 1017.3 -
01/08:00am - - - - - NE 9 13 5 7 1017.0 1017.0 -
01/07:30am - - - - - NNE 11 13 6 7 1016.6 1016.6 -
01/07:00am - - - - - NE 11 13 6 7 1016.0 1016.0 -
01/06:30am - - - - - NE 13 15 7 8 1015.7 1015.7 -
01/06:00am - - - - - NE 11 13 6 7 1015.3 1015.3 -
01/05:30am - - - - - NE 7 9 4 5 1015.0 1015.0 -
01/05:00am - - - - - NE 9 11 5 6 1014.8 1014.8 -
01/04:30am - - - - - NE 7 9 4 5 1014.7 1014.7 -
01/04:00am - - - - - NE 9 9 5 5 1014.6 1014.6 -
01/03:30am - - - - - NE 6 7 3 4 1014.7 1014.7 -
01/03:00am - - - - - ENE 7 11 4 6 1014.7 1014.7 -
01/02:30am - - - - - ENE 7 9 4 5 1014.8 1014.8 -
01/02:00am - - - - - ENE 9 11 5 6 1015.0 1015.0 -
01/01:30am - - - - - NE 11 13 6 7 1015.2 1015.2 -

Other Formats:

Comma delimited format used in spreadsheet applications
http://www.bom.gov.au/fwo/IDQ60801/IDQ60801.94284.axf

JavaScript Object Notation format (JSON) in row-major order
http://www.bom.gov.au/fwo/IDQ60801/IDQ60801.94284.json